sensor_id;sensor_type;location;lat;lon;timestamp;temperature;humidity
42097;DHT22;27754;45.414;11.084;2023-03-23T00:01:04;12.40;78.30
42097;DHT22;27754;45.414;11.084;2023-03-23T00:03:31;12.30;78.40
42097;DHT22;27754;45.414;11.084;2023-03-23T00:05:59;12.30;78.40
42097;DHT22;27754;45.414;11.084;2023-03-23T00:08:33;12.20;78.60
42097;DHT22;27754;45.414;11.084;2023-03-23T00:10:59;12.30;78.70
42097;DHT22;27754;45.414;11.084;2023-03-23T00:13:28;12.20;78.80
42097;DHT22;27754;45.414;11.084;2023-03-23T00:15:54;12.20;78.90
42097;DHT22;27754;45.414;11.084;2023-03-23T00:18:23;12.20;79.10
42097;DHT22;27754;45.414;11.084;2023-03-23T00:20:51;12.10;79.20
42097;DHT22;27754;45.414;11.084;2023-03-23T00:23:18;12.10;79.30
42097;DHT22;27754;45.414;11.084;2023-03-23T00:25:55;12.00;79.40
42097;DHT22;27754;45.414;11.084;2023-03-23T00:28:26;12.00;79.50
42097;DHT22;27754;45.414;11.084;2023-03-23T00:31:03;12.00;79.60
42097;DHT22;27754;45.414;11.084;2023-03-23T00:33:35;12.00;79.60
42097;DHT22;27754;45.414;11.084;2023-03-23T00:36:10;12.00;79.60
42097;DHT22;27754;45.414;11.084;2023-03-23T00:38:38;11.90;79.80
42097;DHT22;27754;45.414;11.084;2023-03-23T00:41:05;11.90;80.00
42097;DHT22;27754;45.414;11.084;2023-03-23T00:43:32;11.90;79.80
42097;DHT22;27754;45.414;11.084;2023-03-23T00:46:03;11.90;79.80
42097;DHT22;27754;45.414;11.084;2023-03-23T00:48:35;11.90;79.90
42097;DHT22;27754;45.414;11.084;2023-03-23T00:51:02;11.90;79.80
42097;DHT22;27754;45.414;11.084;2023-03-23T00:53:32;11.90;79.80
42097;DHT22;27754;45.414;11.084;2023-03-23T00:55:58;11.90;79.80
42097;DHT22;27754;45.414;11.084;2023-03-23T00:58:24;11.90;79.80
42097;DHT22;27754;45.414;11.084;2023-03-23T01:00:50;11.80;79.60
42097;DHT22;27754;45.414;11.084;2023-03-23T01:03:16;11.70;80.00
42097;DHT22;27754;45.414;11.084;2023-03-23T01:05:45;11.50;80.70
42097;DHT22;27754;45.414;11.084;2023-03-23T01:08:14;11.50;80.70
42097;DHT22;27754;45.414;11.084;2023-03-23T01:10:40;11.40;80.80
42097;DHT22;27754;45.414;11.084;2023-03-23T01:13:07;11.40;81.10
42097;DHT22;27754;45.414;11.084;2023-03-23T01:15:33;11.40;81.40
42097;DHT22;27754;45.414;11.084;2023-03-23T01:17:59;11.40;81.50
42097;DHT22;27754;45.414;11.084;2023-03-23T01:20:26;11.40;81.20
42097;DHT22;27754;45.414;11.084;2023-03-23T01:22:57;11.40;81.40
42097;DHT22;27754;45.414;11.084;2023-03-23T01:25:31;11.50;81.30
42097;DHT22;27754;45.414;11.084;2023-03-23T01:27:57;11.50;81.40
42097;DHT22;27754;45.414;11.084;2023-03-23T01:30:24;11.50;81.80
42097;DHT22;27754;45.414;11.084;2023-03-23T01:32:51;11.40;82.00
42097;DHT22;27754;45.414;11.084;2023-03-23T01:35:18;11.40;81.90
42097;DHT22;27754;45.414;11.084;2023-03-23T01:37:45;11.30;81.80
42097;DHT22;27754;45.414;11.084;2023-03-23T01:40:11;11.30;81.70
42097;DHT22;27754;45.414;11.084;2023-03-23T01:42:38;11.20;82.00
42097;DHT22;27754;45.414;11.084;2023-03-23T01:45:26;11.30;81.70
42097;DHT22;27754;45.414;11.084;2023-03-23T01:47:57;11.20;81.80
42097;DHT22;27754;45.414;11.084;2023-03-23T01:50:27;11.20;82.00
42097;DHT22;27754;45.414;11.084;2023-03-23T01:52:55;11.10;82.50
42097;DHT22;27754;45.414;11.084;2023-03-23T01:55:24;11.00;83.40
42097;DHT22;27754;45.414;11.084;2023-03-23T01:57:52;11.00;83.80
42097;DHT22;27754;45.414;11.084;2023-03-23T02:00:19;10.90;83.70
42097;DHT22;27754;45.414;11.084;2023-03-23T02:02:53;11.00;83.70
42097;DHT22;27754;45.414;11.084;2023-03-23T02:05:30;10.90;83.50
42097;DHT22;27754;45.414;11.084;2023-03-23T02:08:02;10.90;83.50
42097;DHT22;27754;45.414;11.084;2023-03-23T02:10:33;11.00;83.20
42097;DHT22;27754;45.414;11.084;2023-03-23T02:13:00;11.00;83.40
42097;DHT22;27754;45.414;11.084;2023-03-23T02:15:41;10.90;83.20
42097;DHT22;27754;45.414;11.084;2023-03-23T02:23:18;10.90;82.50
42097;DHT22;27754;45.414;11.084;2023-03-23T02:26:01;10.80;82.70
42097;DHT22;27754;45.414;11.084;2023-03-23T02:37:28;10.80;82.70
42097;DHT22;27754;45.414;11.084;2023-03-23T02:39:33;10.80;82.60
42097;DHT22;27754;45.414;11.084;2023-03-23T02:42:11;10.90;82.50
42097;DHT22;27754;45.414;11.084;2023-03-23T02:44:43;10.90;82.40
42097;DHT22;27754;45.414;11.084;2023-03-23T02:47:19;10.90;82.30
42097;DHT22;27754;45.414;11.084;2023-03-23T02:49:48;10.90;82.40
42097;DHT22;27754;45.414;11.084;2023-03-23T02:52:20;10.90;82.30
42097;DHT22;27754;45.414;11.084;2023-03-23T02:54:49;10.90;82.50
42097;DHT22;27754;45.414;11.084;2023-03-23T02:57:17;10.90;82.40
42097;DHT22;27754;45.414;11.084;2023-03-23T02:59:45;10.90;82.40
42097;DHT22;27754;45.414;11.084;2023-03-23T03:02:32;10.90;82.30
42097;DHT22;27754;45.414;11.084;2023-03-23T03:17:41;10.30;80.70
42097;DHT22;27754;45.414;11.084;2023-03-23T03:20:10;10.10;81.80
42097;DHT22;27754;45.414;11.084;2023-03-23T03:22:42;9.90;83.00
42097;DHT22;27754;45.414;11.084;2023-03-23T03:25:11;9.90;83.30
42097;DHT22;27754;45.414;11.084;2023-03-23T03:27:44;9.90;84.00
42097;DHT22;27754;45.414;11.084;2023-03-23T03:30:22;9.90;84.10
42097;DHT22;27754;45.414;11.084;2023-03-23T03:32:52;9.90;84.00
42097;DHT22;27754;45.414;11.084;2023-03-23T03:35:23;9.90;84.10
42097;DHT22;27754;45.414;11.084;2023-03-23T03:37:50;9.80;84.80
42097;DHT22;27754;45.414;11.084;2023-03-23T03:40:19;9.90;84.90
42097;DHT22;27754;45.414;11.084;2023-03-23T03:42:46;9.90;84.80
42097;DHT22;27754;45.414;11.084;2023-03-23T03:45:16;9.90;84.70
42097;DHT22;27754;45.414;11.084;2023-03-23T03:47:43;9.90;84.60
42097;DHT22;27754;45.414;11.084;2023-03-23T03:50:10;10.00;84.70
42097;DHT22;27754;45.414;11.084;2023-03-23T03:52:37;10.10;84.50
42097;DHT22;27754;45.414;11.084;2023-03-23T03:55:05;10.00;83.70
42097;DHT22;27754;45.414;11.084;2023-03-23T03:57:33;10.00;84.00
42097;DHT22;27754;45.414;11.084;2023-03-23T04:00:19;9.90;84.10
42097;DHT22;27754;45.414;11.084;2023-03-23T04:02:48;9.90;84.40
42097;DHT22;27754;45.414;11.084;2023-03-23T04:05:31;9.90;84.10
42097;DHT22;27754;45.414;11.084;2023-03-23T04:07:58;9.90;84.40
42097;DHT22;27754;45.414;11.084;2023-03-23T04:10:31;9.90;84.70
42097;DHT22;27754;45.414;11.084;2023-03-23T04:12:57;9.90;84.70
42097;DHT22;27754;45.414;11.084;2023-03-23T04:15:47;10.00;84.70
42097;DHT22;27754;45.414;11.084;2023-03-23T04:18:13;10.00;84.70
42097;DHT22;27754;45.414;11.084;2023-03-23T04:20:43;10.10;84.50
42097;DHT22;27754;45.414;11.084;2023-03-23T04:23:10;10.20;84.30
42097;DHT22;27754;45.414;11.084;2023-03-23T04:25:36;10.30;84.30
42097;DHT22;27754;45.414;11.084;2023-03-23T04:28:04;10.20;84.00
42097;DHT22;27754;45.414;11.084;2023-03-23T04:30:37;10.30;83.90
42097;DHT22;27754;45.414;11.084;2023-03-23T04:33:06;10.30;83.90
42097;DHT22;27754;45.414;11.084;2023-03-23T04:35:32;10.30;83.90
42097;DHT22;27754;45.414;11.084;2023-03-23T04:38:12;10.30;83.90
42097;DHT22;27754;45.414;11.084;2023-03-23T04:40:41;10.40;83.80
42097;DHT22;27754;45.414;11.084;2023-03-23T04:43:27;10.40;83.60
42097;DHT22;27754;45.414;11.084;2023-03-23T04:46:00;10.40;83.50
42097;DHT22;27754;45.414;11.084;2023-03-23T04:48:30;10.40;83.40
42097;DHT22;27754;45.414;11.084;2023-03-23T04:51:11;10.40;83.30
42097;DHT22;27754;45.414;11.084;2023-03-23T04:53:42;10.50;83.40
42097;DHT22;27754;45.414;11.084;2023-03-23T04:56:09;10.50;83.40
42097;DHT22;27754;45.414;11.084;2023-03-23T04:58:41;10.50;83.40
42097;DHT22;27754;45.414;11.084;2023-03-23T05:01:12;10.50;83.60
42097;DHT22;27754;45.414;11.084;2023-03-23T05:03:56;10.60;83.30
42097;DHT22;27754;45.414;11.084;2023-03-23T05:06:22;10.60;83.40
42097;DHT22;27754;45.414;11.084;2023-03-23T05:08:52;10.50;83.70
42097;DHT22;27754;45.414;11.084;2023-03-23T05:11:20;10.50;83.80
42097;DHT22;27754;45.414;11.084;2023-03-23T05:13:45;10.60;83.70
42097;DHT22;27754;45.414;11.084;2023-03-23T05:16:12;10.60;83.70
42097;DHT22;27754;45.414;11.084;2023-03-23T05:18:39;10.50;83.70
42097;DHT22;27754;45.414;11.084;2023-03-23T05:21:08;10.60;83.70
42097;DHT22;27754;45.414;11.084;2023-03-23T05:23:38;10.60;83.50
42097;DHT22;27754;45.414;11.084;2023-03-23T05:26:16;10.60;83.60
42097;DHT22;27754;45.414;11.084;2023-03-23T05:28:42;10.70;83.50
42097;DHT22;27754;45.414;11.084;2023-03-23T05:31:15;10.70;83.20
42097;DHT22;27754;45.414;11.084;2023-03-23T05:33:42;10.80;83.30
42097;DHT22;27754;45.414;11.084;2023-03-23T05:36:30;10.80;83.20
42097;DHT22;27754;45.414;11.084;2023-03-23T05:39:25;10.80;83.30
42097;DHT22;27754;45.414;11.084;2023-03-23T05:42:17;10.80;83.20
42097;DHT22;27754;45.414;11.084;2023-03-23T05:45:04;10.80;83.20
42097;DHT22;27754;45.414;11.084;2023-03-23T05:47:31;10.90;83.00
42097;DHT22;27754;45.414;11.084;2023-03-23T05:50:04;10.90;83.10
42097;DHT22;27754;45.414;11.084;2023-03-23T05:52:33;10.90;83.10
42097;DHT22;27754;45.414;11.084;2023-03-23T05:55:03;10.90;83.10
42097;DHT22;27754;45.414;11.084;2023-03-23T05:57:32;11.00;83.00
42097;DHT22;27754;45.414;11.084;2023-03-23T06:00:05;10.90;82.30
42097;DHT22;27754;45.414;11.084;2023-03-23T06:02:43;10.90;82.70
42097;DHT22;27754;45.414;11.084;2023-03-23T06:05:13;10.90;82.90
42097;DHT22;27754;45.414;11.084;2023-03-23T06:07:43;11.10;82.30
42097;DHT22;27754;45.414;11.084;2023-03-23T06:10:09;11.10;82.00
42097;DHT22;27754;45.414;11.084;2023-03-23T06:12:42;11.20;81.90
42097;DHT22;27754;45.414;11.084;2023-03-23T06:15:26;11.30;81.90
42097;DHT22;27754;45.414;11.084;2023-03-23T06:18:15;11.40;81.50
42097;DHT22;27754;45.414;11.084;2023-03-23T06:21:04;11.50;81.10
42097;DHT22;27754;45.414;11.084;2023-03-23T06:23:59;11.60;81.10
42097;DHT22;27754;45.414;11.084;2023-03-23T06:26:39;11.60;81.40
42097;DHT22;27754;45.414;11.084;2023-03-23T06:29:10;11.70;80.90
42097;DHT22;27754;45.414;11.084;2023-03-23T06:31:44;11.70;80.60
42097;DHT22;27754;45.414;11.084;2023-03-23T06:34:10;11.70;80.90
42097;DHT22;27754;45.414;11.084;2023-03-23T06:36:56;11.80;80.70
42097;DHT22;27754;45.414;11.084;2023-03-23T06:39:48;11.80;80.80
42097;DHT22;27754;45.414;11.084;2023-03-23T06:42:38;11.80;80.70
42097;DHT22;27754;45.414;11.084;2023-03-23T06:45:22;11.90;80.70
42097;DHT22;27754;45.414;11.084;2023-03-23T06:47:53;12.10;80.40
42097;DHT22;27754;45.414;11.084;2023-03-23T06:50:19;12.20;80.10
42097;DHT22;27754;45.414;11.084;2023-03-23T06:52:47;12.40;80.00
42097;DHT22;27754;45.414;11.084;2023-03-23T06:55:14;12.50;79.50
42097;DHT22;27754;45.414;11.084;2023-03-23T06:57:40;12.80;79.00
42097;DHT22;27754;45.414;11.084;2023-03-23T07:00:09;13.00;77.80
42097;DHT22;27754;45.414;11.084;2023-03-23T07:02:38;13.10;77.10
42097;DHT22;27754;45.414;11.084;2023-03-23T07:05:04;13.20;78.20
42097;DHT22;27754;45.414;11.084;2023-03-23T07:07:30;13.20;79.30
42097;DHT22;27754;45.414;11.084;2023-03-23T07:10:26;13.30;79.20
42097;DHT22;27754;45.414;11.084;2023-03-23T07:12:52;13.50;78.50
42097;DHT22;27754;45.414;11.084;2023-03-23T07:15:18;13.60;78.20
42097;DHT22;27754;45.414;11.084;2023-03-23T07:17:48;13.60;78.10
42097;DHT22;27754;45.414;11.084;2023-03-23T07:20:21;13.60;77.80
42097;DHT22;27754;45.414;11.084;2023-03-23T07:22:47;13.70;77.80
42097;DHT22;27754;45.414;11.084;2023-03-23T07:25:29;13.80;77.50
42097;DHT22;27754;45.414;11.084;2023-03-23T07:27:59;13.80;76.70
42097;DHT22;27754;45.414;11.084;2023-03-23T07:30:27;13.70;75.90
42097;DHT22;27754;45.414;11.084;2023-03-23T07:32:56;13.60;74.90
42097;DHT22;27754;45.414;11.084;2023-03-23T07:35:22;13.60;74.60
42097;DHT22;27754;45.414;11.084;2023-03-23T07:37:59;13.70;74.60
42097;DHT22;27754;45.414;11.084;2023-03-23T07:40:26;13.80;74.00
42097;DHT22;27754;45.414;11.084;2023-03-23T07:42:57;13.70;74.60
42097;DHT22;27754;45.414;11.084;2023-03-23T07:45:40;13.80;74.80
42097;DHT22;27754;45.414;11.084;2023-03-23T07:48:06;13.90;74.00
42097;DHT22;27754;45.414;11.084;2023-03-23T07:50:32;14.10;74.10
42097;DHT22;27754;45.414;11.084;2023-03-23T07:53:04;14.10;73.90
42097;DHT22;27754;45.414;11.084;2023-03-23T07:55:31;14.30;73.50
42097;DHT22;27754;45.414;11.084;2023-03-23T07:58:04;14.40;72.90
42097;DHT22;27754;45.414;11.084;2023-03-23T08:00:30;14.80;72.40
42097;DHT22;27754;45.414;11.084;2023-03-23T08:02:57;14.90;71.50
42097;DHT22;27754;45.414;11.084;2023-03-23T08:05:39;15.00;71.00
42097;DHT22;27754;45.414;11.084;2023-03-23T08:08:25;15.20;70.90
42097;DHT22;27754;45.414;11.084;2023-03-23T08:11:15;15.40;71.00
42097;DHT22;27754;45.414;11.084;2023-03-23T08:13:45;15.80;72.00
42097;DHT22;27754;45.414;11.084;2023-03-23T08:16:13;15.90;69.50
42097;DHT22;27754;45.414;11.084;2023-03-23T08:18:54;16.10;68.80
42097;DHT22;27754;45.414;11.084;2023-03-23T08:21:34;16.00;68.90
42097;DHT22;27754;45.414;11.084;2023-03-23T08:24:20;16.00;69.20
42097;DHT22;27754;45.414;11.084;2023-03-23T08:26:49;15.90;69.40
42097;DHT22;27754;45.414;11.084;2023-03-23T08:29:35;15.70;69.90
42097;DHT22;27754;45.414;11.084;2023-03-23T08:32:20;15.40;70.80
42097;DHT22;27754;45.414;11.084;2023-03-23T08:35:24;15.40;70.40
42097;DHT22;27754;45.414;11.084;2023-03-23T08:38:16;15.60;71.30
42097;DHT22;27754;45.414;11.084;2023-03-23T08:41:12;15.80;70.10
42097;DHT22;27754;45.414;11.084;2023-03-23T08:43:56;16.20;69.70
42097;DHT22;27754;45.414;11.084;2023-03-23T08:46:41;16.10;69.80
42097;DHT22;27754;45.414;11.084;2023-03-23T08:49:25;16.20;69.10
42097;DHT22;27754;45.414;11.084;2023-03-23T08:51:51;16.10;70.20
42097;DHT22;27754;45.414;11.084;2023-03-23T08:54:47;16.10;68.90
42097;DHT22;27754;45.414;11.084;2023-03-23T08:57:30;16.00;69.40
42097;DHT22;27754;45.414;11.084;2023-03-23T09:00:10;16.10;69.90
42097;DHT22;27754;45.414;11.084;2023-03-23T09:03:01;16.20;69.80
42097;DHT22;27754;45.414;11.084;2023-03-23T09:05:58;16.40;69.60
42097;DHT22;27754;45.414;11.084;2023-03-23T09:08:36;16.40;68.90
42097;DHT22;27754;45.414;11.084;2023-03-23T09:11:04;16.40;68.80
42097;DHT22;27754;45.414;11.084;2023-03-23T09:13:31;16.30;69.50
42097;DHT22;27754;45.414;11.084;2023-03-23T09:15:57;16.20;69.40
42097;DHT22;27754;45.414;11.084;2023-03-23T09:18:23;16.20;69.70
42097;DHT22;27754;45.414;11.084;2023-03-23T09:20:51;16.30;69.90
42097;DHT22;27754;45.414;11.084;2023-03-23T09:23:17;16.30;69.50
42097;DHT22;27754;45.414;11.084;2023-03-23T09:25:43;16.40;69.60
42097;DHT22;27754;45.414;11.084;2023-03-23T09:28:09;16.40;68.70
42097;DHT22;27754;45.414;11.084;2023-03-23T09:30:37;16.60;68.40
42097;DHT22;27754;45.414;11.084;2023-03-23T09:33:05;16.80;68.90
42097;DHT22;27754;45.414;11.084;2023-03-23T09:35:32;16.70;68.50
42097;DHT22;27754;45.414;11.084;2023-03-23T09:38:00;16.80;69.30
42097;DHT22;27754;45.414;11.084;2023-03-23T09:46:40;17.30;66.70
42097;DHT22;27754;45.414;11.084;2023-03-23T09:49:25;17.30;66.20
42097;DHT22;27754;45.414;11.084;2023-03-23T09:52:01;17.40;66.90
42097;DHT22;27754;45.414;11.084;2023-03-23T09:54:49;17.30;67.00
42097;DHT22;27754;45.414;11.084;2023-03-23T09:57:38;17.40;66.10
42097;DHT22;27754;45.414;11.084;2023-03-23T10:00:16;17.30;66.40
42097;DHT22;27754;45.414;11.084;2023-03-23T10:03:12;17.30;66.10
42097;DHT22;27754;45.414;11.084;2023-03-23T10:05:54;17.10;67.40
42097;DHT22;27754;45.414;11.084;2023-03-23T10:08:24;17.20;66.70
42097;DHT22;27754;45.414;11.084;2023-03-23T10:11:02;17.30;67.10
42097;DHT22;27754;45.414;11.084;2023-03-23T10:13:50;17.40;67.00
42097;DHT22;27754;45.414;11.084;2023-03-23T10:16:21;17.60;66.80
42097;DHT22;27754;45.414;11.084;2023-03-23T10:21:27;17.80;67.00
42097;DHT22;27754;45.414;11.084;2023-03-23T10:24:04;17.80;67.50
42097;DHT22;27754;45.414;11.084;2023-03-23T10:26:59;17.90;66.70
42097;DHT22;27754;45.414;11.084;2023-03-23T10:29:35;18.00;66.60
42097;DHT22;27754;45.414;11.084;2023-03-23T10:32:13;18.10;66.50
42097;DHT22;27754;45.414;11.084;2023-03-23T10:34:56;18.30;65.00
42097;DHT22;27754;45.414;11.084;2023-03-23T10:37:37;18.40;63.40
42097;DHT22;27754;45.414;11.084;2023-03-23T10:40:11;18.40;62.20
42097;DHT22;27754;45.414;11.084;2023-03-23T10:42:40;18.60;62.00
42097;DHT22;27754;45.414;11.084;2023-03-23T10:45:15;18.80;62.40
42097;DHT22;27754;45.414;11.084;2023-03-23T10:48:13;18.70;61.70
42097;DHT22;27754;45.414;11.084;2023-03-23T10:50:41;18.60;62.70
42097;DHT22;27754;45.414;11.084;2023-03-23T10:53:19;18.90;62.70
42097;DHT22;27754;45.414;11.084;2023-03-23T10:55:46;19.10;61.80
42097;DHT22;27754;45.414;11.084;2023-03-23T10:58:23;19.10;61.50
42097;DHT22;27754;45.414;11.084;2023-03-23T11:00:49;18.90;61.30
42097;DHT22;27754;45.414;11.084;2023-03-23T11:08:17;19.00;60.10
42097;DHT22;27754;45.414;11.084;2023-03-23T11:10:53;18.80;59.90
42097;DHT22;27754;45.414;11.084;2023-03-23T11:13:21;18.80;61.40
42097;DHT22;27754;45.414;11.084;2023-03-23T11:15:48;18.80;62.10
42097;DHT22;27754;45.414;11.084;2023-03-23T11:18:39;18.80;61.80
42097;DHT22;27754;45.414;11.084;2023-03-23T11:21:07;18.90;61.60
42097;DHT22;27754;45.414;11.084;2023-03-23T11:23:37;18.80;62.00
42097;DHT22;27754;45.414;11.084;2023-03-23T11:26:22;18.80;61.70
42097;DHT22;27754;45.414;11.084;2023-03-23T11:28:55;18.90;62.00
42097;DHT22;27754;45.414;11.084;2023-03-23T11:31:32;18.90;61.60
42097;DHT22;27754;45.414;11.084;2023-03-23T11:34:02;19.00;61.40
42097;DHT22;27754;45.414;11.084;2023-03-23T11:37:03;19.10;61.30
42097;DHT22;27754;45.414;11.084;2023-03-23T11:39:34;19.30;61.10
42097;DHT22;27754;45.414;11.084;2023-03-23T11:42:02;19.40;60.10
42097;DHT22;27754;45.414;11.084;2023-03-23T11:44:42;19.40;60.20
42097;DHT22;27754;45.414;11.084;2023-03-23T11:47:32;19.30;60.20
42097;DHT22;27754;45.414;11.084;2023-03-23T11:50:30;19.30;60.20
42097;DHT22;27754;45.414;11.084;2023-03-23T11:53:16;19.40;60.90
42097;DHT22;27754;45.414;11.084;2023-03-23T11:58:18;19.60;60.40
42097;DHT22;27754;45.414;11.084;2023-03-23T12:00:55;19.70;59.70
42097;DHT22;27754;45.414;11.084;2023-03-23T12:03:31;19.80;60.20
42097;DHT22;27754;45.414;11.084;2023-03-23T12:06:10;19.60;60.50
42097;DHT22;27754;45.414;11.084;2023-03-23T12:09:02;19.60;61.30
42097;DHT22;27754;45.414;11.084;2023-03-23T12:11:56;19.50;60.80
42097;DHT22;27754;45.414;11.084;2023-03-23T12:14:59;19.40;61.50
42097;DHT22;27754;45.414;11.084;2023-03-23T12:23:22;18.90;63.20
42097;DHT22;27754;45.414;11.084;2023-03-23T12:26:12;19.10;62.40
42097;DHT22;27754;45.414;11.084;2023-03-23T12:36:53;19.60;62.30
42097;DHT22;27754;45.414;11.084;2023-03-23T12:42:36;19.80;61.10
42097;DHT22;27754;45.414;11.084;2023-03-23T12:48:00;19.90;60.80
42097;DHT22;27754;45.414;11.084;2023-03-23T12:50:46;19.90;60.00
42097;DHT22;27754;45.414;11.084;2023-03-23T12:53:27;19.90;59.00
42097;DHT22;27754;45.414;11.084;2023-03-23T12:56:18;19.80;58.90
42097;DHT22;27754;45.414;11.084;2023-03-23T12:58:47;19.90;59.00
42097;DHT22;27754;45.414;11.084;2023-03-23T13:01:24;20.00;59.60
42097;DHT22;27754;45.414;11.084;2023-03-23T13:06:42;20.10;57.90
42097;DHT22;27754;45.414;11.084;2023-03-23T13:12:03;20.20;57.00
42097;DHT22;27754;45.414;11.084;2023-03-23T13:14:45;20.20;56.50
42097;DHT22;27754;45.414;11.084;2023-03-23T13:23:42;20.40;55.70
42097;DHT22;27754;45.414;11.084;2023-03-23T13:26:18;20.40;56.10
42097;DHT22;27754;45.414;11.084;2023-03-23T13:31:34;20.60;56.40
42097;DHT22;27754;45.414;11.084;2023-03-23T13:34:05;20.70;54.60
42097;DHT22;27754;45.414;11.084;2023-03-23T13:36:44;20.70;54.10
42097;DHT22;27754;45.414;11.084;2023-03-23T13:39:31;20.80;53.20
42097;DHT22;27754;45.414;11.084;2023-03-23T13:49:57;20.70;52.60
42097;DHT22;27754;45.414;11.084;2023-03-23T14:06:15;20.80;53.10
42097;DHT22;27754;45.414;11.084;2023-03-23T14:09:33;20.80;52.40
42097;DHT22;27754;45.414;11.084;2023-03-23T14:12:02;20.80;52.20
42097;DHT22;27754;45.414;11.084;2023-03-23T14:14:40;20.80;51.90
42097;DHT22;27754;45.414;11.084;2023-03-23T14:19:47;20.80;48.20
42097;DHT22;27754;45.414;11.084;2023-03-23T14:22:22;20.90;49.50
42097;DHT22;27754;45.414;11.084;2023-03-23T14:24:48;21.00;49.60
42097;DHT22;27754;45.414;11.084;2023-03-23T14:27:22;20.90;49.60
42097;DHT22;27754;45.414;11.084;2023-03-23T14:29:59;20.90;51.00
42097;DHT22;27754;45.414;11.084;2023-03-23T14:32:28;20.90;51.80
42097;DHT22;27754;45.414;11.084;2023-03-23T14:34:54;21.10;52.20
42097;DHT22;27754;45.414;11.084;2023-03-23T14:37:21;21.00;52.40
42097;DHT22;27754;45.414;11.084;2023-03-23T14:39:50;20.90;52.30
42097;DHT22;27754;45.414;11.084;2023-03-23T14:42:26;21.00;52.00
42097;DHT22;27754;45.414;11.084;2023-03-23T14:44:52;21.00;52.70
42097;DHT22;27754;45.414;11.084;2023-03-23T14:47:25;20.90;52.30
42097;DHT22;27754;45.414;11.084;2023-03-23T14:49:57;20.90;52.30
42097;DHT22;27754;45.414;11.084;2023-03-23T14:52:27;20.90;52.90
42097;DHT22;27754;45.414;11.084;2023-03-23T14:54:54;20.80;52.60
42097;DHT22;27754;45.414;11.084;2023-03-23T14:57:28;20.70;52.40
42097;DHT22;27754;45.414;11.084;2023-03-23T14:59:55;20.70;53.00
42097;DHT22;27754;45.414;11.084;2023-03-23T15:02:28;20.60;52.80
42097;DHT22;27754;45.414;11.084;2023-03-23T15:05:04;20.70;53.00
42097;DHT22;27754;45.414;11.084;2023-03-23T15:07:34;20.80;52.30
42097;DHT22;27754;45.414;11.084;2023-03-23T15:10:01;20.80;51.80
42097;DHT22;27754;45.414;11.084;2023-03-23T15:12:29;20.80;51.10
42097;DHT22;27754;45.414;11.084;2023-03-23T15:15:02;20.90;51.90
42097;DHT22;27754;45.414;11.084;2023-03-23T15:17:34;20.90;52.50
42097;DHT22;27754;45.414;11.084;2023-03-23T15:20:09;20.90;51.80
42097;DHT22;27754;45.414;11.084;2023-03-23T15:22:36;20.90;50.50
42097;DHT22;27754;45.414;11.084;2023-03-23T15:27:44;20.80;51.40
42097;DHT22;27754;45.414;11.084;2023-03-23T15:33:10;20.60;51.20
42097;DHT22;27754;45.414;11.084;2023-03-23T15:35:39;20.60;51.70
42097;DHT22;27754;45.414;11.084;2023-03-23T15:38:24;20.60;51.80
42097;DHT22;27754;45.414;11.084;2023-03-23T15:40:53;20.60;52.00
42097;DHT22;27754;45.414;11.084;2023-03-23T15:43:22;20.60;51.70
42097;DHT22;27754;45.414;11.084;2023-03-23T15:51:23;20.40;53.10
42097;DHT22;27754;45.414;11.084;2023-03-23T15:53:51;20.30;53.00
42097;DHT22;27754;45.414;11.084;2023-03-23T15:56:17;20.30;52.80
42097;DHT22;27754;45.414;11.084;2023-03-23T15:58:44;20.30;52.80
42097;DHT22;27754;45.414;11.084;2023-03-23T16:01:23;20.20;53.20
42097;DHT22;27754;45.414;11.084;2023-03-23T16:03:55;20.10;53.40
42097;DHT22;27754;45.414;11.084;2023-03-23T16:06:24;20.20;53.50
42097;DHT22;27754;45.414;11.084;2023-03-23T16:08:55;20.10;53.20
42097;DHT22;27754;45.414;11.084;2023-03-23T16:11:24;20.10;53.20
42097;DHT22;27754;45.414;11.084;2023-03-23T16:13:51;20.00;53.40
42097;DHT22;27754;45.414;11.084;2023-03-23T16:16:38;19.90;53.50
42097;DHT22;27754;45.414;11.084;2023-03-23T16:19:05;19.90;53.80
42097;DHT22;27754;45.414;11.084;2023-03-23T16:21:32;19.80;54.70
42097;DHT22;27754;45.414;11.084;2023-03-23T16:23:59;19.80;54.90
42097;DHT22;27754;45.414;11.084;2023-03-23T16:26:27;19.70;55.10
42097;DHT22;27754;45.414;11.084;2023-03-23T16:28:54;19.70;55.20
42097;DHT22;27754;45.414;11.084;2023-03-23T16:31:35;19.60;55.00
42097;DHT22;27754;45.414;11.084;2023-03-23T16:34:02;19.60;55.00
42097;DHT22;27754;45.414;11.084;2023-03-23T16:36:29;19.50;55.00
42097;DHT22;27754;45.414;11.084;2023-03-23T16:38:56;19.50;54.80
42097;DHT22;27754;45.414;11.084;2023-03-23T16:41:23;19.40;55.00
42097;DHT22;27754;45.414;11.084;2023-03-23T16:43:50;19.30;55.30
42097;DHT22;27754;45.414;11.084;2023-03-23T16:46:17;19.30;55.10
42097;DHT22;27754;45.414;11.084;2023-03-23T16:48:44;19.30;55.20
42097;DHT22;27754;45.414;11.084;2023-03-23T16:51:11;19.30;55.30
42097;DHT22;27754;45.414;11.084;2023-03-23T16:53:38;19.20;55.50
42097;DHT22;27754;45.414;11.084;2023-03-23T16:56:05;19.20;55.80
42097;DHT22;27754;45.414;11.084;2023-03-23T16:58:32;19.10;55.70
42097;DHT22;27754;45.414;11.084;2023-03-23T17:01:00;19.00;55.90
42097;DHT22;27754;45.414;11.084;2023-03-23T17:03:27;18.90;56.10
42097;DHT22;27754;45.414;11.084;2023-03-23T17:05:55;18.80;56.20
42097;DHT22;27754;45.414;11.084;2023-03-23T17:08:21;18.80;56.40
42097;DHT22;27754;45.414;11.084;2023-03-23T17:10:48;18.60;56.70
42097;DHT22;27754;45.414;11.084;2023-03-23T17:13:16;18.50;57.10
42097;DHT22;27754;45.414;11.084;2023-03-23T17:15:44;18.40;57.20
42097;DHT22;27754;45.414;11.084;2023-03-23T17:18:13;18.30;57.50
42097;DHT22;27754;45.414;11.084;2023-03-23T17:20:41;18.20;57.70
42097;DHT22;27754;45.414;11.084;2023-03-23T17:23:08;18.10;57.90
42097;DHT22;27754;45.414;11.084;2023-03-23T17:25:35;18.00;58.30
42097;DHT22;27754;45.414;11.084;2023-03-23T17:28:02;17.90;58.60
42097;DHT22;27754;45.414;11.084;2023-03-23T17:30:33;17.80;58.60
42097;DHT22;27754;45.414;11.084;2023-03-23T17:33:00;17.70;58.80
42097;DHT22;27754;45.414;11.084;2023-03-23T17:35:27;17.60;59.00
42097;DHT22;27754;45.414;11.084;2023-03-23T17:37:55;17.50;59.00
42097;DHT22;27754;45.414;11.084;2023-03-23T17:40:22;17.40;59.10
42097;DHT22;27754;45.414;11.084;2023-03-23T17:42:49;17.30;59.30
42097;DHT22;27754;45.414;11.084;2023-03-23T17:45:16;17.30;59.30
42097;DHT22;27754;45.414;11.084;2023-03-23T17:47:43;17.20;59.40